Time;durP1;ratioP1;P1;durP2;ratioP2;P2;SDS_P1;SDS_P2;PMS_P1;PMS_P2;Temp;Humidity;BMP_temperature;BMP_pressure;BME280_temperature;BME280_humidity;BME280_pressure;Samples;Min_cycle;Max_cycle;Signal;HPM_P1;HPM_P2
2022/04/28 00:01:49;;;;;;;10.27;4.82;;;;;;;8.18;100.00;94942.56;5059193;28;20456;-92
2022/04/28 00:04:21;;;;;;;9.57;4.63;;;;;;;8.20;100.00;94943.91;5042529;28;20115;-91
2022/04/28 00:06:50;;;;;;;11.87;5.23;;;;;;;8.11;100.00;94941.91;5059220;28;20016;-92
2022/04/28 00:09:20;;;;;;;13.13;4.85;;;;;;;8.11;100.00;94941.91;5059212;28;20479;-92
2022/04/28 00:11:56;;;;;;;;;;;;;;;;;;;;;
2022/04/28 00:14:30;;;;;;;10.02;5.18;;;;;;;7.91;100.00;94938.75;5059061;28;20024;-92
2022/04/28 00:17:13;;;;;;;;;;;;;;;;;;;;;
2022/04/28 00:19:39;;;;;;;11.88;5.20;;;;;;;7.82;100.00;94944.59;5059772;28;20017;-92
2022/04/28 00:22:23;;;;;;;;;;;;;;;;;;;;;
2022/04/28 00:24:53;;;;;;;8.75;5.00;;;;;;;7.80;100.00;94933.59;5058943;28;20029;-92
2022/04/28 00:27:29;;;;;;;;;;;;;;;;;;;;;
2022/04/28 00:29:59;;;;;;;10.13;5.05;;;;;;;7.81;100.00;94933.34;5054169;28;20031;-91
2022/04/28 00:32:24;;;;;;;9.35;4.97;;;;;;;7.86;100.00;94935.25;5042482;28;20025;-92
2022/04/28 00:34:50;;;;;;;8.63;4.28;;;;;;;7.88;100.00;94936.59;5041708;28;20135;-92
2022/04/28 00:37:18;;;;;;;9.98;4.53;;;;;;;7.86;100.00;94930.84;5041724;28;20051;-91
2022/04/28 00:39:52;;;;;;;9.75;3.38;;;;;;;7.95;100.00;94928.63;5042272;28;20021;-92
2022/04/28 00:42:18;;;;;;;6.03;3.05;;;;;;;7.77;100.00;94929.63;5058743;28;20033;-92
2022/04/28 00:44:50;;;;;;;5.03;3.00;;;;;;;7.74;100.00;94925.66;5043478;28;20037;-92
2022/04/28 00:47:16;;;;;;;5.53;3.00;;;;;;;7.81;100.00;94924.75;5059688;28;20035;-92
2022/04/28 00:52:33;;;;;;;5.70;2.83;;;;;;;7.42;100.00;94928.75;5058261;28;20120;-92
2022/04/28 00:55:09;;;;;;;;;;;;;;;;;;;;;
2022/04/28 00:57:45;;;;;;;;;;;;;;;;;;;;;
2022/04/28 01:00:21;;;;;;;;;;;;;;;;;;;;;
2022/04/28 01:02:56;;;;;;;8.25;4.53;;;;;;;7.27;100.00;94934.50;5057825;28;20031;-92
2022/04/28 01:05:26;;;;;;;7.18;4.05;;;;;;;7.41;100.00;94929.78;5057763;28;20493;-92
2022/04/28 01:07:57;;;;;;;8.55;5.15;;;;;;;7.34;100.00;94929.16;5057534;28;20032;-92
2022/04/28 01:10:32;;;;;;;;;;;;;;;;;;;;;
2022/04/28 01:13:00;;;;;;;8.07;4.43;;;;;;;7.32;100.00;94931.97;5058860;28;20035;-92
2022/04/28 01:15:26;;;;;;;9.52;4.50;;;;;;;7.41;100.00;94931.63;5057615;28;20032;-92
2022/04/28 01:17:51;;;;;;;8.90;4.50;;;;;;;7.34;100.00;94936.97;5057670;28;20032;-91
2022/04/28 01:20:17;;;;;;;7.18;3.95;;;;;;;7.42;100.00;94933.97;5057515;28;20029;-94
2022/04/28 01:22:45;;;;;;;5.60;3.38;;;;;;;7.42;100.00;94941.81;5040878;28;20032;-94
2022/04/28 01:25:16;;;;;;;7.55;3.70;;;;;;;7.18;100.00;94938.47;5041724;28;20029;-94
2022/04/28 01:27:44;;;;;;;5.05;3.40;;;;;;;7.21;100.00;94943.22;5042028;28;20024;-94
2022/04/28 01:30:17;;;;;;;4.32;2.90;;;;;;;7.19;100.00;94938.25;5041521;28;20025;-94
2022/04/28 01:32:45;;;;;;;3.92;2.53;;;;;;;7.26;100.00;94937.31;5041780;28;20432;-94
2022/04/28 01:35:18;;;;;;;4.43;2.63;;;;;;;7.18;100.00;94936.69;5041485;28;20434;-94
2022/04/28 01:37:44;;;;;;;4.75;2.53;;;;;;;7.28;100.00;94930.06;5042096;28;20087;-94
2022/04/28 01:40:13;;;;;;;5.63;2.35;;;;;;;7.21;100.00;94933.59;5040266;28;20036;-94
2022/04/28 01:42:47;;;;;;;6.45;2.63;;;;;;;7.40;100.00;94933.44;5041548;28;20033;-95
2022/04/28 01:45:14;;;;;;;3.67;2.63;;;;;;;7.47;100.00;94934.09;5041228;28;20020;-95
2022/04/28 01:47:51;;;;;;;9.63;2.95;;;;;;;7.25;100.00;94930.53;5040805;28;20135;-95
2022/04/28 01:50:24;;;;;;;8.82;4.35;;;;;;;7.27;100.00;94928.47;5057317;28;20091;-95
2022/04/28 01:55:36;;;;;;;7.30;4.20;;;;;;;7.15;100.00;94936.34;5043004;28;20112;-95
2022/04/28 01:58:06;;;;;;;4.93;3.73;;;;;;;7.04;100.00;94924.94;5057314;28;20029;-94
2022/04/28 02:00:42;;;;;;;;;;;;;;;;;;;;;
2022/04/28 02:03:08;;;;;;;15.32;3.40;;;;;;;7.07;100.00;94921.88;5057242;28;20443;-95
2022/04/28 02:05:37;;;;;;;7.28;3.92;;;;;;;6.87;100.00;94923.03;5057168;28;20115;-94
2022/04/28 02:08:03;;;;;;;9.10;4.45;;;;;;;7.02;100.00;94932.97;5057999;28;20037;-95
2022/04/28 02:10:33;;;;;;;9.68;4.13;;;;;;;7.09;100.00;94930.25;5056966;28;20091;-95
2022/04/28 02:12:58;;;;;;;6.03;3.92;;;;;;;7.15;100.00;94929.31;5040502;28;20048;-95
2022/04/28 02:15:24;;;;;;;7.20;3.85;;;;;;;7.16;100.00;94928.28;5040226;28;20401;-94
2022/04/28 02:17:53;;;;;;;8.32;3.72;;;;;;;6.98;100.00;94923.25;5040053;28;20613;-94
2022/04/28 02:20:21;;;;;;;7.45;3.67;;;;;;;7.01;100.00;94925.38;5040635;28;20025;-95
2022/04/28 02:22:46;;;;;;;10.05;3.50;;;;;;;6.99;100.00;94917.00;5039832;28;20036;-95
2022/04/28 02:25:12;;;;;;;9.95;3.35;;;;;;;6.87;100.00;94925.63;5040585;28;20513;-95
2022/04/28 02:27:37;;;;;;;5.40;3.00;;;;;;;6.95;100.00;94921.88;5040213;28;20029;-94
2022/04/28 02:30:05;;;;;;;9.02;2.83;;;;;;;6.68;100.00;94929.41;5040042;28;20100;-95
2022/04/28 02:35:52;;;;;;;3.53;2.03;;;;;;;6.89;100.00;94923.63;5057449;28;20036;-94
2022/04/28 02:38:18;;;;;;;4.03;1.80;;;;;;;6.73;100.00;94916.47;5056800;28;20426;-94
2022/04/28 02:40:44;;;;;;;2.17;1.35;;;;;;;6.89;100.00;94922.81;5056806;28;20029;-95
2022/04/28 02:43:12;;;;;;;2.55;1.38;;;;;;;6.93;100.00;94919.53;5039495;28;20488;-94
2022/04/28 02:45:39;;;;;;;4.25;1.77;;;;;;;6.91;100.00;94915.56;5040155;28;20025;-95
2022/04/28 02:48:05;;;;;;;4.05;1.55;;;;;;;6.99;100.00;94920.41;5040113;28;20025;-94
2022/04/28 02:50:31;;;;;;;3.00;1.48;;;;;;;6.96;100.00;94922.69;5057193;28;20063;-94
2022/04/28 02:53:01;;;;;;;4.40;1.35;;;;;;;6.77;100.00;94923.63;5040011;28;20059;-94
2022/04/28 02:55:28;;;;;;;2.10;1.42;;;;;;;6.78;100.00;94921.81;5039773;28;20041;-95
2022/04/28 02:57:56;;;;;;;2.03;1.20;;;;;;;6.64;100.00;94929.88;5056201;28;20434;-95
2022/04/28 03:00:22;;;;;;;1.67;1.15;;;;;;;6.76;100.00;94923.88;5039605;28;20430;-95
2022/04/28 03:02:50;;;;;;;1.73;1.30;;;;;;;6.78;100.00;94927.81;5056302;28;20033;-95
2022/04/28 03:10:46;;;;;;;2.72;1.60;;;;;;;6.66;100.00;94914.00;5056299;28;20115;-94
2022/04/28 03:11:04;;;;;;;3.40;1.30;;;;;;;6.62;100.00;94918.09;5057070;28;20040;-94
2022/04/28 03:13:35;;;;;;;4.82;1.25;;;;;;;6.82;100.00;94915.13;5057322;28;20035;-91
2022/04/28 03:16:04;;;;;;;3.55;1.80;;;;;;;6.67;100.00;94922.63;5012038;28;20053;-91
2022/04/28 03:18:33;;;;;;;3.53;1.88;;;;;;;6.61;100.00;94921.72;5056158;28;20028;-91
2022/04/28 03:20:59;;;;;;;2.63;1.80;;;;;;;6.68;100.00;94919.78;5039714;28;20389;-91
2022/04/28 03:23:32;;;;;;;4.03;1.40;;;;;;;6.74;100.00;94920.66;5019824;28;20451;-92
2022/04/28 03:26:08;;;;;;;;;;;;;;;;;;;;;
2022/04/28 03:28:38;;;;;;;3.38;1.67;;;;;;;6.54;100.00;94924.44;5055793;28;20031;-92
2022/04/28 03:31:06;;;;;;;4.20;2.35;;;;;;;6.76;100.00;94921.25;5040323;28;20029;-92
2022/04/28 03:33:41;;;;;;;6.53;2.13;;;;;;;6.59;100.00;94921.16;5039760;28;20090;-91
2022/04/28 03:36:50;;;;;;;3.13;2.20;;;;;;;6.68;100.00;94917.19;5040631;28;20037;-92
2022/04/28 03:38:55;;;;;;;2.33;1.58;;;;;;;6.83;100.00;94916.69;5054526;28;20132;-91
2022/04/28 03:41:21;;;;;;;2.72;1.80;;;;;;;6.74;100.00;94920.66;5040292;28;20410;-92
2022/04/28 03:43:46;;;;;;;3.97;1.40;;;;;;;6.75;100.00;94922.28;5040970;28;20033;-95
2022/04/28 03:46:15;;;;;;;4.28;1.40;;;;;;;6.89;100.00;94915.00;5039001;28;20052;-95
2022/04/28 03:48:51;;;;;;;;;;;;;;;;;;;;;
2022/04/28 03:51:19;;;;;;;2.47;1.10;;;;;;;6.89;100.00;94920.19;5041070;28;20051;-95
2022/04/28 03:53:54;;;;;;;2.25;0.98;;;;;;;6.97;100.00;94916.44;5039762;28;20154;-95
2022/04/28 03:56:23;;;;;;;2.13;1.10;;;;;;;6.88;100.00;94918.63;5040411;28;20127;-95
2022/04/28 03:58:58;;;;;;;;;;;;;;;;;;;;;
2022/04/28 04:01:28;;;;;;;3.13;0.90;;;;;;;6.95;100.00;94911.47;5055882;28;20031;-94
2022/04/28 04:03:54;;;;;;;2.15;0.68;;;;;;;6.99;100.00;94917.00;5058341;28;20090;-94
2022/04/28 04:06:22;;;;;;;0.70;0.70;;;;;;;7.09;100.00;94917.22;5042661;28;20426;-95
2022/04/28 04:08:50;;;;;;;1.27;0.73;;;;;;;6.84;100.00;94917.50;5043164;28;20032;-95
2022/04/28 04:11:18;;;;;;;4.22;1.00;;;;;;;6.83;100.00;94927.13;5042932;28;20043;-95
2022/04/28 04:13:45;;;;;;;1.75;0.80;;;;;;;6.92;100.00;94917.94;5043278;28;20068;-95
2022/04/28 04:16:11;;;;;;;0.93;0.73;;;;;;;6.83;100.00;94919.31;5042739;28;20072;-95
2022/04/28 04:18:38;;;;;;;0.90;0.70;;;;;;;6.92;100.00;94925.75;5059604;28;20040;-94
2022/04/28 04:21:04;;;;;;;0.70;0.70;;;;;;;7.13;100.00;94930.56;5059306;28;20093;-94
2022/04/28 04:23:33;;;;;;;2.80;0.90;;;;;;;7.00;100.00;94924.59;5042686;28;20033;-95
2022/04/28 04:26:01;;;;;;;4.60;0.80;;;;;;;6.79;100.00;94921.56;5042506;28;20082;-95
2022/04/28 04:28:34;;;;;;;0.82;0.65;;;;;;;6.75;100.00;94922.28;5042759;28;20350;-95
2022/04/28 04:33:44;;;;;;;1.63;0.95;;;;;;;6.70;100.00;94927.34;5058944;28;20031;-94
2022/04/28 04:36:19;;;;;;;1.63;0.88;;;;;;;7.04;100.00;94924.94;5042002;28;20033;-95
2022/04/28 04:38:44;;;;;;;1.00;0.90;;;;;;;7.00;100.00;94924.59;5058619;28;20029;-95
2022/04/28 04:41:17;;;;;;;1.23;0.77;;;;;;;7.16;100.00;94928.28;5059765;28;20127;-95
2022/04/28 04:43:45;;;;;;;1.20;0.70;;;;;;;7.10;100.00;94936.22;5058638;28;20108;-94
2022/04/28 04:46:12;;;;;;;0.77;0.68;;;;;;;7.44;100.00;94933.75;5042560;28;20025;-95
2022/04/28 04:48:49;;;;;;;0.65;0.60;;;;;;;7.32;100.00;94939.03;5059208;28;20437;-95
2022/04/28 04:51:26;;;;;;;;;;;;;;;;;;;;;
2022/04/28 04:54:05;;;;;;;;;;;;;;;;;;;;;
2022/04/28 04:56:34;;;;;;;2.78;0.80;;;;;;;7.31;100.00;94943.44;5058422;28;20043;-95
2022/04/28 04:59:02;;;;;;;3.67;0.80;;;;;;;7.27;100.00;94944.94;5042084;28;20036;-96
2022/04/28 05:01:37;;;;;;;;;;;;;;;;;;;;;
2022/04/28 05:04:06;;;;;;;0.85;0.57;;;;;;;7.36;100.00;94953.16;5061941;28;20504;-95
2022/04/28 05:06:41;;;;;;;1.05;0.70;;;;;;;7.57;100.00;94950.94;5059449;28;20036;-95
2022/04/28 05:09:16;;;;;;;;;;;;;;;;;;;;;
2022/04/28 05:11:52;;;;;;;;;;;;;;;;;;;;;
2022/04/28 05:14:28;;;;;;;;;;;;;;;;;;;;;
2022/04/28 05:16:57;;;;;;;1.23;0.90;;;;;;;8.27;100.00;94958.63;5057897;28;20036;-93
2022/04/28 05:19:26;;;;;;;1.38;0.80;;;;;;;8.33;100.00;94968.91;5041725;28;20035;-94
2022/04/28 05:21:52;;;;;;;1.80;0.73;;;;;;;8.52;100.00;94973.91;5057661;28;20040;-94
2022/04/28 05:24:18;;;;;;;0.85;0.80;;;;;;;8.59;100.00;94971.91;5057658;28;20107;-94
2022/04/28 05:26:49;;;;;;;1.38;0.95;;;;;;;8.84;100.00;94980.38;5041484;28;20119;-94
2022/04/28 05:29:18;;;;;;;2.65;0.70;;;;;;;8.98;100.00;94975.56;5041896;28;20035;-94
2022/04/28 05:31:46;;;;;;;1.40;1.08;;;;;;;9.00;100.00;94969.09;5041283;28;20116;-95
2022/04/28 05:34:16;;;;;;;1.80;1.08;;;;;;;9.06;100.00;94972.56;5041582;28;20025;-94
2022/04/28 05:36:50;;;;;;;1.17;0.80;;;;;;;9.21;100.00;94971.16;5057742;28;20037;-94
2022/04/28 05:39:18;;;;;;;1.67;0.90;;;;;;;9.24;100.00;94981.13;5057654;28;20025;-94
2022/04/28 05:41:47;;;;;;;1.02;0.70;;;;;;;9.37;100.00;94983.38;5040953;28;20043;-95
2022/04/28 05:46:56;;;;;;;3.33;0.77;;;;;;;9.84;100.00;94986.47;5058293;28;20499;-93
2022/04/28 05:49:26;;;;;;;1.63;0.85;;;;;;;10.07;100.00;94976.75;5057183;28;20054;-94
2022/04/28 05:51:52;;;;;;;2.65;0.93;;;;;;;10.24;100.00;94980.03;5057353;28;20341;-94
2022/04/28 05:54:18;;;;;;;0.95;0.85;;;;;;;10.32;100.00;94989.28;5057064;28;20078;-94
2022/04/28 05:56:47;;;;;;;1.10;0.90;;;;;;;10.33;100.00;94986.41;5056827;28;20158;-94
2022/04/28 05:59:20;;;;;;;0.95;0.85;;;;;;;10.51;100.00;94988.91;5057416;28;20307;-94
2022/04/28 06:01:46;;;;;;;3.63;0.80;;;;;;;10.68;100.00;94989.53;5058040;28;20043;-94
2022/04/28 06:04:18;;;;;;;6.20;0.98;;;;;;;10.85;100.00;94996.50;5040702;28;20410;-94
2022/04/28 06:06:46;;;;;;;1.07;0.83;;;;;;;10.75;100.00;94992.75;5057078;28;20029;-94
2022/04/28 06:09:12;;;;;;;2.28;0.80;;;;;;;10.92;100.00;94999.66;5057225;28;20032;-94
2022/04/28 06:11:38;;;;;;;1.05;0.88;;;;;;;11.02;100.00;94993.69;5040451;28;20043;-95
2022/04/28 06:14:03;;;;;;;1.30;0.80;;;;;;;11.18;94.58;95000.59;5056833;28;20059;-94
2022/04/28 06:16:29;;;;;;;1.13;0.70;;;;;;;11.16;90.87;95000.06;5040556;28;20033;-94
2022/04/28 06:18:57;;;;;;;1.00;0.80;;;;;;;11.37;98.44;95010.66;5056521;28;20036;-94
2022/04/28 06:24:48;;;;;;;0.63;0.63;;;;;;;11.58;93.82;95015.97;5057518;28;20040;-94
2022/04/28 06:27:15;;;;;;;2.60;0.75;;;;;;;11.66;93.12;95017.31;5055928;28;20036;-94
2022/04/28 06:29:48;;;;;;;1.25;0.80;;;;;;;11.62;100.00;95011.00;5056831;28;20096;-93
2022/04/28 06:32:16;;;;;;;1.97;0.80;;;;;;;11.84;91.35;95018.69;5056649;28;20024;-93
2022/04/28 06:34:42;;;;;;;0.65;0.60;;;;;;;11.90;85.49;95014.25;5040182;28;20028;-93
2022/04/28 06:37:08;;;;;;;1.23;0.68;;;;;;;11.99;92.09;95020.56;5056283;28;20025;-94
2022/04/28 06:39:36;;;;;;;0.80;0.60;;;;;;;11.97;99.83;95020.81;5039965;28;20028;-94
2022/04/28 06:42:04;;;;;;;1.38;0.70;;;;;;;11.87;82.06;95023.41;5056226;28;20029;-94
2022/04/28 06:44:38;;;;;;;1.05;0.82;;;;;;;11.50;100.00;95024.34;5039738;28;20136;-94
2022/04/28 06:47:05;;;;;;;1.00;0.73;;;;;;;11.84;97.48;95029.19;5056555;28;20032;-94
2022/04/28 06:49:31;;;;;;;1.00;0.70;;;;;;;11.88;90.68;95032.88;5056054;28;20430;-94
2022/04/28 06:51:57;;;;;;;0.70;0.70;;;;;;;11.97;92.40;95031.31;5040166;28;20032;-94
2022/04/28 06:54:25;;;;;;;1.25;0.70;;;;;;;11.95;97.43;95033.41;5039440;28;20035;-92
2022/04/28 06:56:51;;;;;;;2.35;0.80;;;;;;;12.11;89.03;95030.84;5040244;28;20037;-93
2022/04/28 06:59:16;;;;;;;1.25;0.70;;;;;;;12.11;87.24;95030.84;5040006;28;20032;-94
2022/04/28 07:01:43;;;;;;;1.30;0.70;;;;;;;12.21;80.04;95033.50;5055953;28;20353;-93
2022/04/28 07:04:08;;;;;;;1.20;1.00;;;;;;;12.12;100.00;95032.44;5039477;28;20370;-94
2022/04/28 07:06:38;;;;;;;0.85;0.70;;;;;;;11.95;87.63;95035.25;5056151;28;20029;-94
2022/04/28 07:09:13;;;;;;;0.75;0.70;;;;;;;12.46;88.13;95039.03;5039783;28;20036;-94
2022/04/28 07:11:39;;;;;;;1.30;1.02;;;;;;;12.42;88.39;95038.78;5040835;28;20487;-94
2022/04/28 07:14:04;;;;;;;0.65;0.60;;;;;;;12.50;81.02;95035.63;5056017;28;20029;-94
2022/04/28 07:16:32;;;;;;;1.77;0.80;;;;;;;12.70;83.33;95041.94;5056889;28;20044;-94
2022/04/28 07:19:02;;;;;;;0.80;0.63;;;;;;;12.64;70.69;95043.00;5056032;28;20155;-94
2022/04/28 07:21:30;;;;;;;3.25;0.70;;;;;;;12.56;81.14;95047.72;5040000;28;20123;-94
2022/04/28 07:23:55;;;;;;;1.63;0.90;;;;;;;12.59;80.51;95039.28;5040143;28;20041;-93
2022/04/28 07:26:23;;;;;;;2.78;0.90;;;;;;;12.75;79.97;95041.91;5040234;28;20417;-93
2022/04/28 07:28:48;;;;;;;1.05;0.80;;;;;;;12.80;79.11;95051.66;5040130;28;20033;-94
2022/04/28 07:31:24;;;;;;;3.70;1.38;;;;;;;12.96;72.29;95041.91;5039698;28;20036;-93
2022/04/28 07:33:49;;;;;;;0.95;0.82;;;;;;;12.94;71.90;95042.16;5040647;28;20036;-94
2022/04/28 07:36:15;;;;;;;3.53;0.90;;;;;;;12.79;75.97;95047.44;5056749;28;20031;-94
2022/04/28 07:38:44;;;;;;;1.77;0.93;;;;;;;12.65;75.23;95053.22;5025535;28;20082;-94
2022/04/28 07:41:12;;;;;;;2.17;1.15;;;;;;;12.73;73.56;95049.28;5059659;28;20029;-94
2022/04/28 07:43:38;;;;;;;1.02;0.90;;;;;;;13.02;65.67;95054.00;5059645;28;20398;-94
2022/04/28 07:46:04;;;;;;;2.00;0.98;;;;;;;13.10;66.78;95057.94;5059325;28;20033;-95
2022/04/28 07:48:32;;;;;;;1.75;1.00;;;;;;;13.02;67.89;95048.72;5059195;28;20098;-94
2022/04/28 07:50:58;;;;;;;3.50;0.90;;;;;;;12.75;66.72;95049.81;5043554;28;20063;-94
2022/04/28 07:53:24;;;;;;;1.98;1.05;;;;;;;12.83;64.19;95053.75;5026616;28;20053;-94
2022/04/28 07:58:36;;;;;;;1.42;1.00;;;;;;;12.97;68.14;95052.16;5059545;28;20043;-94
2022/04/28 08:01:04;;;;;;;1.00;0.90;;;;;;;13.13;65.58;95060.81;5059447;28;20048;-94
2022/04/28 08:03:29;;;;;;;1.35;0.85;;;;;;;13.25;67.07;95054.50;5043062;28;20020;-94
2022/04/28 08:05:56;;;;;;;1.65;0.88;;;;;;;13.49;67.70;95064.47;5042762;28;20017;-94
2022/04/28 08:08:24;;;;;;;1.75;0.80;;;;;;;13.41;63.46;95063.13;5059164;28;20021;-94
2022/04/28 08:10:57;;;;;;;1.42;0.98;;;;;;;13.22;67.41;95060.28;5042964;28;20376;-94
2022/04/28 08:13:32;;;;;;;1.25;0.90;;;;;;;13.33;73.24;95059.19;5043640;28;20060;-94
2022/04/28 08:15:58;;;;;;;2.28;1.23;;;;;;;13.51;70.20;95057.88;5058902;28;20111;-94
2022/04/28 08:18:39;;;;;;;;;;;;;;;;;;;;;
2022/04/28 08:21:13;;;;;;;1.27;1.10;;;;;;;13.88;72.51;95074.31;5059005;28;20017;-93
2022/04/28 08:23:39;;;;;;;5.50;1.35;;;;;;;13.70;69.10;95065.16;5043747;28;20434;-94
2022/04/28 08:26:07;;;;;;;1.73;1.10;;;;;;;13.83;69.60;95069.06;5042520;28;20013;-95
2022/04/28 08:28:33;;;;;;;3.72;1.50;;;;;;;13.88;66.85;95066.41;5042797;28;20027;-94
2022/04/28 08:30:59;;;;;;;1.95;1.20;;;;;;;13.76;63.31;95065.94;5042271;28;20024;-94
2022/04/28 08:33:24;;;;;;;3.38;1.23;;;;;;;13.90;66.88;95066.16;5042078;28;20016;-94
2022/04/28 08:35:50;;;;;;;2.25;1.38;;;;;;;13.64;67.26;95067.06;5058564;28;20028;-95
2022/04/28 08:38:25;;;;;;;;;;;;;;;;;;;;;
2022/04/28 08:41:01;;;;;;;2.10;1.30;;;;;;;13.93;60.36;95068.25;5059627;28;20024;-95
2022/04/28 08:43:33;;;;;;;1.83;1.40;;;;;;;14.03;70.39;95067.41;5058449;28;20021;-94
2022/04/28 08:48:54;;;;;;;1.25;1.00;;;;;;;13.88;62.46;95070.91;5058170;28;20107;-93
2022/04/28 08:51:26;;;;;;;1.83;1.17;;;;;;;13.98;62.68;95069.00;5058461;28;20021;-94
2022/04/28 08:53:53;;;;;;;2.30;1.10;;;;;;;13.94;63.50;95075.06;5042582;28;20021;-94
2022/04/28 08:56:32;;;;;;;;;;;;;;;;;;;;;
2022/04/28 08:59:00;;;;;;;2.75;1.33;;;;;;;14.23;64.08;95084.94;5058361;28;20043;-94
2022/04/28 09:01:29;;;;;;;4.05;1.48;;;;;;;13.93;64.54;95084.84;5041797;28;20434;-94
2022/04/28 09:04:12;;;;;;;;;;;;;;;;;;;;;
2022/04/28 09:06:40;;;;;;;1.30;1.08;;;;;;;14.10;61.51;95073.94;5058181;28;20009;-94
2022/04/28 09:09:16;;;;;;;5.88;1.35;;;;;;;14.47;70.79;95071.88;5041276;28;20139;-95
2022/04/28 09:11:53;;;;;;;;;;;;;;;;;;;;;
2022/04/28 09:14:22;;;;;;;2.63;1.33;;;;;;;14.59;60.43;95084.72;5057996;28;20035;-94
2022/04/28 09:16:49;;;;;;;3.20;1.20;;;;;;;14.66;63.16;95089.69;5025784;28;20029;-94
2022/04/28 09:19:25;;;;;;;1.60;1.10;;;;;;;14.47;63.93;95079.78;5057853;28;20021;-96
2022/04/28 09:22:04;;;;;;;2.33;1.30;;;;;;;14.56;67.38;95072.06;5041998;28;20036;-95
2022/04/28 09:24:30;;;;;;;2.15;1.40;;;;;;;14.62;62.17;95078.91;5042282;28;20021;-94
2022/04/28 09:26:56;;;;;;;6.63;1.30;;;;;;;14.61;65.20;95081.81;5041411;28;20094;-94
2022/04/28 09:29:29;;;;;;;1.75;1.40;;;;;;;14.56;61.38;95075.50;5041366;28;20024;-94
2022/04/28 09:31:55;;;;;;;4.47;2.10;;;;;;;14.68;67.12;95082.28;5041893;28;20100;-94
2022/04/28 09:34:33;;;;;;;;;;;;;;;;;;;;;
2022/04/28 09:36:59;;;;;;;5.22;1.95;;;;;;;14.70;65.94;95077.53;5057513;28;20025;-95
2022/04/28 09:42:39;;;;;;;2.97;1.80;;;;;;;14.78;63.63;95068.25;5057658;28;20082;-95
2022/04/28 09:45:18;;;;;;;5.45;1.40;;;;;;;15.29;64.63;95060.97;5044389;28;20346;-94
2022/04/28 09:47:44;;;;;;;2.35;1.63;;;;;;;15.19;65.84;95061.81;5042436;28;20029;-94
2022/04/28 09:50:14;;;;;;;2.92;1.67;;;;;;;15.20;67.45;95058.13;5057366;28;20052;-95
2022/04/28 09:52:42;;;;;;;3.92;1.75;;;;;;;15.39;67.88;95060.84;5041056;28;20028;-95
2022/04/28 09:55:25;;;;;;;;;;;;;;;;;;;;;
2022/04/28 09:57:53;;;;;;;6.22;2.03;;;;;;;15.25;63.55;95060.72;5057273;28;20032;-94
2022/04/28 10:00:27;;;;;;;2.28;1.70;;;;;;;15.47;61.39;95070.78;5040544;28;20025;-95
2022/04/28 10:02:55;;;;;;;4.03;2.10;;;;;;;15.38;61.64;95062.69;5041995;28;20033;-96
2022/04/28 10:05:23;;;;;;;6.43;2.83;;;;;;;15.39;64.05;95063.47;5041016;28;20345;-94
2022/04/28 10:07:57;;;;;;;5.28;2.92;;;;;;;15.63;69.03;95062.69;5041061;28;20124;-94
2022/04/28 10:10:25;;;;;;;4.68;2.20;;;;;;;15.64;68.13;95057.13;5041406;28;20024;-95
2022/04/28 10:12:59;;;;;;;3.92;2.42;;;;;;;15.80;73.34;95060.38;5040819;28;20032;-96
2022/04/28 10:15:27;;;;;;;3.05;2.10;;;;;;;15.84;75.41;95052.66;5057750;28;20112;-94
2022/04/28 10:17:59;;;;;;;3.45;2.50;;;;;;;16.09;89.13;95056.09;5040509;28;20036;-94
2022/04/28 10:20:50;;;;;;;4.53;2.60;;;;;;;16.29;71.91;95052.38;5056844;28;20029;-95
2022/04/28 10:23:16;;;;;;;5.07;2.88;;;;;;;15.89;64.58;95065.03;5040944;28;20358;-95
2022/04/28 10:34:19;;;;;;;3.88;2.78;;;;;;;15.27;65.44;95062.00;5057324;28;20047;-94
2022/04/28 10:37:01;;;;;;;4.95;2.60;;;;;;;15.20;65.66;95060.75;5059102;28;20060;-94
2022/04/28 10:39:42;;;;;;;7.35;2.30;;;;;;;15.51;66.96;95060.47;5059497;28;20033;-95
2022/04/28 10:42:28;;;;;;;;;;;;;;;;;;;;;
2022/04/28 10:44:59;;;;;;;3.78;2.58;;;;;;;15.86;70.48;95061.09;5056871;28;20037;-95
2022/04/28 10:47:38;;;;;;;6.75;2.78;;;;;;;16.20;71.58;95062.03;5056489;28;20020;-94
2022/04/28 10:50:26;;;;;;;6.32;2.55;;;;;;;15.69;62.64;95057.06;5040684;28;20025;-95
2022/04/28 10:53:02;;;;;;;4.75;2.50;;;;;;;15.82;65.10;95062.75;5040678;28;20032;-95
2022/04/28 10:55:50;;;;;;;4.95;2.72;;;;;;;15.39;64.64;95069.56;5041888;28;20041;-95
2022/04/28 10:58:23;;;;;;;3.95;2.85;;;;;;;15.54;68.15;95062.53;5042701;28;20028;-95
2022/04/28 11:01:04;;;;;;;5.15;2.90;;;;;;;15.60;64.07;95061.41;5041650;28;20102;-94
2022/04/28 11:03:47;;;;;;;5.40;2.85;;;;;;;16.11;77.34;95056.59;5041370;28;20032;-93
2022/04/28 11:06:42;;;;;;;;;;;;;;;;;;;;;
2022/04/28 11:09:14;;;;;;;3.78;2.35;;;;;;;16.51;73.84;95057.09;5057874;28;20279;-95
2022/04/28 11:11:49;;;;;;;3.13;2.38;;;;;;;16.35;65.67;95056.50;5041108;28;20029;-94
2022/04/28 11:14:22;;;;;;;4.32;2.42;;;;;;;16.53;76.91;95059.44;5044969;28;20032;-96
2022/04/28 11:16:51;;;;;;;4.40;2.88;;;;;;;16.31;63.62;95063.44;5045375;28;20036;-94
2022/04/28 11:19:27;;;;;;;;;;;;;;;;;;;;;
2022/04/28 11:22:05;;;;;;;;;;;;;;;;;;;;;
2022/04/28 11:24:33;;;;;;;3.53;2.80;;;;;;;16.42;68.42;95064.09;5060871;28;20027;-95
2022/04/28 11:27:09;;;;;;;;;;;;;;;;;;;;;
2022/04/28 11:29:38;;;;;;;5.85;2.72;;;;;;;16.02;62.27;95058.28;5060863;28;20442;-94
2022/04/28 11:32:09;;;;;;;4.15;2.55;;;;;;;16.09;64.23;95054.22;5044130;28;20047;-94
2022/04/28 11:34:48;;;;;;;;;;;;;;;;;;;;;
2022/04/28 11:37:23;;;;;;;4.53;2.80;;;;;;;16.28;64.53;95066.66;5060290;28;20345;-94
2022/04/28 11:39:52;;;;;;;4.10;3.13;;;;;;;16.11;66.02;95056.59;5044074;28;20035;-94
2022/04/28 11:42:18;;;;;;;5.90;3.00;;;;;;;16.27;63.79;95061.66;5059831;28;20075;-95
2022/04/28 11:44:55;;;;;;;4.25;2.90;;;;;;;15.92;61.19;95062.66;5043512;28;20035;-95
2022/04/28 11:47:26;;;;;;;3.70;2.58;;;;;;;16.39;65.28;95056.72;5055860;28;20037;-94
2022/04/28 11:50:02;;;;;;;4.80;2.45;;;;;;;16.54;68.79;95063.63;5043788;28;20036;-94
2022/04/28 11:52:41;;;;;;;4.47;2.60;;;;;;;16.29;63.58;95051.59;5059435;28;20392;-94
2022/04/28 11:55:11;;;;;;;5.53;3.45;;;;;;;16.47;63.14;95065.88;5059901;28;20036;-94
2022/04/28 11:57:39;;;;;;;6.95;3.30;;;;;;;16.58;61.22;95069.16;5059695;28;20061;-95
2022/04/28 12:00:20;;;;;;;;;;;;;;;;;;;;;
2022/04/28 12:02:46;;;;;;;5.30;3.10;;;;;;;16.31;63.37;95060.00;5060163;28;20426;-94
2022/04/28 12:05:23;;;;;;;7.72;3.03;;;;;;;16.21;66.34;95051.16;5059648;28;20064;-95
2022/04/28 12:08:00;;;;;;;13.27;4.03;;;;;;;16.20;64.19;95054.84;5043069;28;20132;-94
2022/04/28 12:16:17;;;;;;;7.10;3.50;;;;;;;15.76;63.09;95056.72;5059442;28;20130;-95
2022/04/28 12:21:48;;;;;;;;;;;;;;;;;;;;;
2022/04/28 12:24:25;;;;;;;;;;;;;;;;;;;;;
2022/04/28 12:26:52;;;;;;;8.65;3.25;;;;;;;16.78;65.25;95047.66;5043886;28;20025;-94
2022/04/28 12:29:29;;;;;;;;;;;;;;;;;;;;;
2022/04/28 12:32:01;;;;;;;5.53;4.00;;;;;;;16.45;65.49;95054.81;5058994;28;20031;-93
2022/04/28 12:34:29;;;;;;;9.25;4.07;;;;;;;16.76;64.56;95052.44;5058540;28;20342;-95
2022/04/28 12:37:08;;;;;;;6.68;3.97;;;;;;;16.78;65.44;95062.75;5058471;28;20025;-95
2022/04/28 12:39:57;;;;;;;6.35;4.00;;;;;;;17.42;81.01;95042.91;5043189;28;20434;-93
2022/04/28 12:42:30;;;;;;;6.38;3.63;;;;;;;17.64;79.61;95040.31;5042879;28;20329;-92
2022/04/28 12:45:04;;;;;;;5.03;3.20;;;;;;;17.89;61.92;95048.84;5043221;28;20033;-93
2022/04/28 12:47:35;;;;;;;9.10;3.75;;;;;;;17.75;63.50;95043.56;5042454;28;20033;-94
2022/04/28 12:50:02;;;;;;;7.68;4.03;;;;;;;16.95;63.55;95059.56;5042122;28;20140;-93
2022/04/28 12:52:49;;;;;;;7.60;4.30;;;;;;;16.68;59.62;95053.13;5042087;28;20326;-94
2022/04/28 12:55:17;;;;;;;6.35;3.20;;;;;;;17.36;70.44;95044.84;5058290;28;20453;-95
2022/04/28 12:57:43;;;;;;;5.00;3.40;;;;;;;17.76;63.15;95052.28;5042354;28;20083;-95
2022/04/28 13:00:15;;;;;;;5.70;3.65;;;;;;;17.28;59.93;95056.09;5058468;28;20033;-95
2022/04/28 13:02:51;;;;;;;8.90;4.57;;;;;;;17.52;57.75;95048.00;5043388;28;20033;-96
2022/04/28 13:05:18;;;;;;;6.32;3.75;;;;;;;17.48;64.23;95041.69;5043113;28;20128;-94
2022/04/28 13:07:44;;;;;;;6.20;3.92;;;;;;;18.03;63.76;95048.88;5041606;28;20497;-94
2022/04/28 13:10:13;;;;;;;6.63;4.10;;;;;;;17.99;60.12;95041.78;5059114;28;20116;-94
2022/04/28 13:12:39;;;;;;;5.50;3.33;;;;;;;18.31;57.80;95040.84;5058417;28;20029;-95
2022/04/28 13:15:15;;;;;;;6.47;3.85;;;;;;;18.18;57.25;95049.63;5041716;28;20119;-93
2022/04/28 13:17:41;;;;;;;5.45;3.78;;;;;;;18.33;59.78;95045.81;5059137;28;20044;-93
2022/04/28 13:20:07;;;;;;;12.10;4.47;;;;;;;17.77;57.74;95037.97;5040801;28;20438;-94
2022/04/28 13:22:48;;;;;;;;;;;;;;;;;;;;;